sensor_id;sensor_type;location;lat;lon;timestamp;pressure;altitude;pressure_sealevel;temperature;humidity
47753;BME280;2038;51.728;6.674;2023-04-30T00:02:03;101636.63;;;9.70;100.00
47753;BME280;2038;51.728;6.674;2023-04-30T00:04:30;101637.00;;;9.64;100.00
47753;BME280;2038;51.728;6.674;2023-04-30T00:06:56;101645.28;;;9.62;100.00
47753;BME280;2038;51.728;6.674;2023-04-30T00:09:22;101642.75;;;9.62;100.00
47753;BME280;2038;51.728;6.674;2023-04-30T00:11:48;101639.06;;;9.58;100.00
47753;BME280;2038;51.728;6.674;2023-04-30T00:14:15;101641.97;;;9.53;100.00
47753;BME280;2038;51.728;6.674;2023-04-30T00:16:41;101645.16;;;9.50;100.00
47753;BME280;2038;51.728;6.674;2023-04-30T00:19:07;101639.78;;;9.47;100.00
47753;BME280;2038;51.728;6.674;2023-04-30T00:21:33;101644.88;;;9.47;100.00
47753;BME280;2038;51.728;6.674;2023-04-30T00:24:00;101645.03;;;9.49;100.00
47753;BME280;2038;51.728;6.674;2023-04-30T00:26:26;101654.97;;;9.46;100.00
47753;BME280;2038;51.728;6.674;2023-04-30T00:28:53;101647.69;;;9.40;100.00
47753;BME280;2038;51.728;6.674;2023-04-30T00:31:19;101661.16;;;9.39;100.00
47753;BME280;2038;51.728;6.674;2023-04-30T00:33:45;101664.72;;;9.31;100.00
47753;BME280;2038;51.728;6.674;2023-04-30T00:36:11;101670.59;;;9.30;100.00
47753;BME280;2038;51.728;6.674;2023-04-30T00:38:38;101666.59;;;9.23;100.00
47753;BME280;2038;51.728;6.674;2023-04-30T00:41:05;101668.16;;;9.21;100.00
47753;BME280;2038;51.728;6.674;2023-04-30T00:43:31;101672.69;;;9.15;100.00
47753;BME280;2038;51.728;6.674;2023-04-30T00:45:59;101672.34;;;9.21;100.00
47753;BME280;2038;51.728;6.674;2023-04-30T00:48:25;101669.66;;;9.19;100.00
47753;BME280;2038;51.728;6.674;2023-04-30T00:50:52;101672.97;;;9.18;100.00
47753;BME280;2038;51.728;6.674;2023-04-30T00:53:19;101669.25;;;9.15;100.00
47753;BME280;2038;51.728;6.674;2023-04-30T00:55:47;101669.16;;;9.13;100.00
47753;BME280;2038;51.728;6.674;2023-04-30T00:58:14;101672.28;;;9.11;100.00
47753;BME280;2038;51.728;6.674;2023-04-30T01:00:41;101672.69;;;9.05;100.00
47753;BME280;2038;51.728;6.674;2023-04-30T01:03:15;101672.69;;;9.05;100.00
47753;BME280;2038;51.728;6.674;2023-04-30T01:05:41;101667.94;;;9.00;100.00
47753;BME280;2038;51.728;6.674;2023-04-30T01:08:08;101661.97;;;8.99;100.00
47753;BME280;2038;51.728;6.674;2023-04-30T01:10:44;101666.78;;;8.96;100.00
47753;BME280;2038;51.728;6.674;2023-04-30T01:13:34;101658.38;;;8.87;100.00
47753;BME280;2038;51.728;6.674;2023-04-30T01:16:21;101655.56;;;8.74;100.00
47753;BME280;2038;51.728;6.674;2023-04-30T01:19:08;101654.91;;;8.76;100.00
47753;BME280;2038;51.728;6.674;2023-04-30T01:21:43;101656.44;;;8.74;100.00
47753;BME280;2038;51.728;6.674;2023-04-30T01:27:47;101658.53;;;8.60;100.00
47753;BME280;2038;51.728;6.674;2023-04-30T01:30:15;101660.75;;;8.46;100.00
47753;BME280;2038;51.728;6.674;2023-04-30T01:32:43;101665.78;;;8.36;100.00
47753;BME280;2038;51.728;6.674;2023-04-30T01:35:09;101663.34;;;8.19;100.00
47753;BME280;2038;51.728;6.674;2023-04-30T01:41:09;101657.31;;;8.09;100.00
47753;BME280;2038;51.728;6.674;2023-04-30T01:47:16;101659.50;;;7.77;100.00
47753;BME280;2038;51.728;6.674;2023-04-30T01:53:15;101662.16;;;7.78;100.00
47753;BME280;2038;51.728;6.674;2023-04-30T01:58:23;101662.25;;;7.88;100.00
47753;BME280;2038;51.728;6.674;2023-04-30T02:00:50;101661.38;;;7.88;100.00
47753;BME280;2038;51.728;6.674;2023-04-30T02:03:17;101667.59;;;7.91;100.00
47753;BME280;2038;51.728;6.674;2023-04-30T02:05:43;101671.25;;;8.04;100.00
47753;BME280;2038;51.728;6.674;2023-04-30T02:08:09;101671.41;;;8.05;100.00
47753;BME280;2038;51.728;6.674;2023-04-30T02:10:35;101668.84;;;8.05;100.00
47753;BME280;2038;51.728;6.674;2023-04-30T02:13:02;101669.94;;;7.98;100.00
47753;BME280;2038;51.728;6.674;2023-04-30T02:15:28;101672.94;;;7.94;100.00
47753;BME280;2038;51.728;6.674;2023-04-30T02:17:54;101670.81;;;7.80;100.00
47753;BME280;2038;51.728;6.674;2023-04-30T02:20:20;101660.41;;;7.77;100.00
47753;BME280;2038;51.728;6.674;2023-04-30T02:22:46;101659.09;;;7.72;100.00
47753;BME280;2038;51.728;6.674;2023-04-30T02:25:13;101655.22;;;7.67;100.00
47753;BME280;2038;51.728;6.674;2023-04-30T02:27:39;101651.06;;;7.68;100.00
47753;BME280;2038;51.728;6.674;2023-04-30T02:30:06;101651.47;;;7.72;100.00
47753;BME280;2038;51.728;6.674;2023-04-30T02:32:33;101642.94;;;7.53;100.00
47753;BME280;2038;51.728;6.674;2023-04-30T02:34:59;101647.56;;;7.57;100.00
47753;BME280;2038;51.728;6.674;2023-04-30T02:37:25;101639.75;;;7.64;100.00
47753;BME280;2038;51.728;6.674;2023-04-30T02:39:52;101647.28;;;7.73;100.00
47753;BME280;2038;51.728;6.674;2023-04-30T02:42:19;101647.56;;;7.76;100.00
47753;BME280;2038;51.728;6.674;2023-04-30T02:44:45;101648.88;;;7.81;100.00
47753;BME280;2038;51.728;6.674;2023-04-30T02:47:11;101660.41;;;7.77;100.00
47753;BME280;2038;51.728;6.674;2023-04-30T02:49:37;101653.13;;;7.72;100.00
47753;BME280;2038;51.728;6.674;2023-04-30T02:52:04;101656.56;;;7.72;100.00
47753;BME280;2038;51.728;6.674;2023-04-30T02:54:34;101661.19;;;7.68;100.00
47753;BME280;2038;51.728;6.674;2023-04-30T02:57:00;101661.31;;;7.78;100.00
47753;BME280;2038;51.728;6.674;2023-04-30T02:59:26;101659.34;;;7.75;100.00
47753;BME280;2038;51.728;6.674;2023-04-30T03:01:53;101661.00;;;7.75;100.00
47753;BME280;2038;51.728;6.674;2023-04-30T03:04:19;101666.44;;;7.69;100.00
47753;BME280;2038;51.728;6.674;2023-04-30T03:06:45;101671.63;;;7.71;100.00
47753;BME280;2038;51.728;6.674;2023-04-30T03:09:11;101664.16;;;7.72;100.00
47753;BME280;2038;51.728;6.674;2023-04-30T03:11:37;101668.22;;;7.70;100.00
47753;BME280;2038;51.728;6.674;2023-04-30T03:14:04;101670.44;;;7.67;100.00
47753;BME280;2038;51.728;6.674;2023-04-30T03:16:30;101665.56;;;7.60;100.00
47753;BME280;2038;51.728;6.674;2023-04-30T03:18:56;101665.72;;;7.62;100.00
47753;BME280;2038;51.728;6.674;2023-04-30T03:21:22;101666.75;;;7.64;100.00
47753;BME280;2038;51.728;6.674;2023-04-30T03:23:49;101660.66;;;7.62;100.00
47753;BME280;2038;51.728;6.674;2023-04-30T03:26:15;101674.97;;;7.61;100.00
47753;BME280;2038;51.728;6.674;2023-04-30T03:28:42;101673.19;;;7.60;100.00
47753;BME280;2038;51.728;6.674;2023-04-30T03:31:08;101676.63;;;7.61;100.00
47753;BME280;2038;51.728;6.674;2023-04-30T03:33:34;101674.97;;;7.61;100.00
47753;BME280;2038;51.728;6.674;2023-04-30T03:36:00;101672.44;;;7.61;100.00
47753;BME280;2038;51.728;6.674;2023-04-30T03:38:26;101671.59;;;7.52;100.00
47753;BME280;2038;51.728;6.674;2023-04-30T03:40:53;101672.69;;;7.45;100.00
47753;BME280;2038;51.728;6.674;2023-04-30T03:43:19;101670.66;;;7.33;100.00
47753;BME280;2038;51.728;6.674;2023-04-30T03:45:46;101677.19;;;7.39;100.00
47753;BME280;2038;51.728;6.674;2023-04-30T03:48:13;101671.44;;;7.50;100.00
47753;BME280;2038;51.728;6.674;2023-04-30T03:50:39;101664.66;;;7.41;100.00
47753;BME280;2038;51.728;6.674;2023-04-30T03:53:05;101664.50;;;7.39;100.00
47753;BME280;2038;51.728;6.674;2023-04-30T03:55:32;101667.50;;;7.35;100.00
47753;BME280;2038;51.728;6.674;2023-04-30T03:57:59;101665.66;;;7.43;100.00
47753;BME280;2038;51.728;6.674;2023-04-30T04:00:25;101665.25;;;7.38;100.00
47753;BME280;2038;51.728;6.674;2023-04-30T04:02:51;101662.69;;;7.38;100.00
47753;BME280;2038;51.728;6.674;2023-04-30T04:05:18;101663.47;;;7.37;100.00
47753;BME280;2038;51.728;6.674;2023-04-30T04:07:44;101667.19;;;7.41;100.00
47753;BME280;2038;51.728;6.674;2023-04-30T04:10:10;101660.75;;;7.44;100.00
47753;BME280;2038;51.728;6.674;2023-04-30T04:12:36;101663.28;;;7.44;100.00
47753;BME280;2038;51.728;6.674;2023-04-30T04:15:03;101660.47;;;7.41;100.00
47753;BME280;2038;51.728;6.674;2023-04-30T04:17:30;101664.03;;;7.43;100.00
47753;BME280;2038;51.728;6.674;2023-04-30T04:19:56;101660.75;;;7.44;100.00
47753;BME280;2038;51.728;6.674;2023-04-30T04:22:22;101664.03;;;7.43;100.00
47753;BME280;2038;51.728;6.674;2023-04-30T04:24:49;101669.56;;;7.39;100.00
47753;BME280;2038;51.728;6.674;2023-04-30T04:27:16;101659.00;;;7.35;100.00
47753;BME280;2038;51.728;6.674;2023-04-30T04:29:42;101655.16;;;7.30;100.00
47753;BME280;2038;51.728;6.674;2023-04-30T04:32:09;101662.06;;;7.49;100.00
47753;BME280;2038;51.728;6.674;2023-04-30T04:34:36;101658.75;;;7.50;100.00
47753;BME280;2038;51.728;6.674;2023-04-30T04:37:03;101655.47;;;7.51;100.00
47753;BME280;2038;51.728;6.674;2023-04-30T04:39:29;101660.81;;;7.54;100.00
47753;BME280;2038;51.728;6.674;2023-04-30T04:41:56;101661.81;;;7.65;100.00
47753;BME280;2038;51.728;6.674;2023-04-30T04:44:22;101659.97;;;7.73;100.00
47753;BME280;2038;51.728;6.674;2023-04-30T04:46:48;101667.25;;;7.78;100.00
47753;BME280;2038;51.728;6.674;2023-04-30T04:49:18;101666.16;;;7.85;100.00
47753;BME280;2038;51.728;6.674;2023-04-30T04:51:45;101666.66;;;7.99;100.00
47753;BME280;2038;51.728;6.674;2023-04-30T04:54:11;101677.47;;;8.07;100.00
47753;BME280;2038;51.728;6.674;2023-04-30T04:56:38;101667.00;;;8.13;100.00
47753;BME280;2038;51.728;6.674;2023-04-30T04:59:04;101673.91;;;8.24;100.00
47753;BME280;2038;51.728;6.674;2023-04-30T05:01:30;101678.13;;;8.42;100.00
47753;BME280;2038;51.728;6.674;2023-04-30T05:03:56;101682.63;;;8.55;100.00
47753;BME280;2038;51.728;6.674;2023-04-30T05:06:21;101682.44;;;8.62;100.00
47753;BME280;2038;51.728;6.674;2023-04-30T05:08:47;101679.66;;;8.69;100.00
47753;BME280;2038;51.728;6.674;2023-04-30T05:11:14;101681.88;;;8.84;100.00
47753;BME280;2038;51.728;6.674;2023-04-30T05:13:40;101679.50;;;8.96;100.00
47753;BME280;2038;51.728;6.674;2023-04-30T05:16:06;101686.06;;;9.13;100.00
47753;BME280;2038;51.728;6.674;2023-04-30T05:18:32;101686.88;;;9.52;100.00
47753;BME280;2038;51.728;6.674;2023-04-30T05:20:58;101679.00;;;9.59;100.00
47753;BME280;2038;51.728;6.674;2023-04-30T05:23:24;101688.78;;;9.45;100.00
47753;BME280;2038;51.728;6.674;2023-04-30T05:25:51;101695.91;;;9.49;100.00
47753;BME280;2038;51.728;6.674;2023-04-30T05:28:18;101684.09;;;9.49;100.00
47753;BME280;2038;51.728;6.674;2023-04-30T05:30:44;101684.38;;;9.62;100.00
47753;BME280;2038;51.728;6.674;2023-04-30T05:33:10;101690.84;;;9.59;100.00
47753;BME280;2038;51.728;6.674;2023-04-30T05:35:36;101693.66;;;10.02;100.00
47753;BME280;2038;51.728;6.674;2023-04-30T05:38:02;101690.31;;;10.13;100.00
47753;BME280;2038;51.728;6.674;2023-04-30T05:40:29;101691.59;;;10.28;100.00
47753;BME280;2038;51.728;6.674;2023-04-30T05:42:55;101695.41;;;10.23;100.00
47753;BME280;2038;51.728;6.674;2023-04-30T05:45:20;101702.28;;;10.45;100.00
47753;BME280;2038;51.728;6.674;2023-04-30T05:47:46;101702.13;;;10.43;100.00
47753;BME280;2038;51.728;6.674;2023-04-30T05:50:12;101702.88;;;10.52;100.00
47753;BME280;2038;51.728;6.674;2023-04-30T05:52:38;101697.69;;;10.51;100.00
47753;BME280;2038;51.728;6.674;2023-04-30T05:55:05;101698.53;;;10.51;100.00
47753;BME280;2038;51.728;6.674;2023-04-30T05:57:31;101698.59;;;10.41;100.00
47753;BME280;2038;51.728;6.674;2023-04-30T05:59:57;101693.91;;;10.15;100.00
47753;BME280;2038;51.728;6.674;2023-04-30T06:02:23;101699.47;;;10.31;100.00
47753;BME280;2038;51.728;6.674;2023-04-30T06:04:49;101698.63;;;10.21;100.00
47753;BME280;2038;51.728;6.674;2023-04-30T06:07:15;101699.88;;;10.06;100.00
47753;BME280;2038;51.728;6.674;2023-04-30T06:09:41;101701.81;;;10.18;100.00
47753;BME280;2038;51.728;6.674;2023-04-30T06:12:07;101701.94;;;10.30;100.00
47753;BME280;2038;51.728;6.674;2023-04-30T06:14:34;101701.28;;;10.32;100.00
47753;BME280;2038;51.728;6.674;2023-04-30T06:17:00;101698.22;;;10.47;100.00
47753;BME280;2038;51.728;6.674;2023-04-30T06:19:26;101704.00;;;10.66;100.00
47753;BME280;2038;51.728;6.674;2023-04-30T06:21:52;101704.31;;;10.80;100.00
47753;BME280;2038;51.728;6.674;2023-04-30T06:24:20;101704.81;;;10.87;100.00
47753;BME280;2038;51.728;6.674;2023-04-30T06:26:46;101706.47;;;10.86;100.00
47753;BME280;2038;51.728;6.674;2023-04-30T06:29:14;101707.09;;;10.94;100.00
47753;BME280;2038;51.728;6.674;2023-04-30T06:31:40;101706.91;;;11.02;100.00
47753;BME280;2038;51.728;6.674;2023-04-30T06:34:06;101706.41;;;11.06;100.00
47753;BME280;2038;51.728;6.674;2023-04-30T06:36:32;101706.91;;;11.24;100.00
47753;BME280;2038;51.728;6.674;2023-04-30T06:38:58;101704.66;;;11.17;100.00
47753;BME280;2038;51.728;6.674;2023-04-30T06:41:25;101706.50;;;11.30;100.00
47753;BME280;2038;51.728;6.674;2023-04-30T06:43:51;101707.50;;;11.32;100.00
47753;BME280;2038;51.728;6.674;2023-04-30T06:46:18;101708.91;;;11.38;100.00
47753;BME280;2038;51.728;6.674;2023-04-30T06:48:44;101707.09;;;11.59;100.00
47753;BME280;2038;51.728;6.674;2023-04-30T06:51:10;101707.31;;;11.62;100.00
47753;BME280;2038;51.728;6.674;2023-04-30T06:53:36;101708.81;;;11.70;100.00
47753;BME280;2038;51.728;6.674;2023-04-30T06:56:03;101700.03;;;11.66;100.00
47753;BME280;2038;51.728;6.674;2023-04-30T06:58:29;101696.50;;;11.76;100.00
47753;BME280;2038;51.728;6.674;2023-04-30T07:00:56;101697.94;;;11.72;100.00
47753;BME280;2038;51.728;6.674;2023-04-30T07:03:23;101700.00;;;11.88;100.00
47753;BME280;2038;51.728;6.674;2023-04-30T07:05:49;101700.13;;;11.90;100.00
47753;BME280;2038;51.728;6.674;2023-04-30T07:08:16;101698.34;;;12.00;100.00
47753;BME280;2038;51.728;6.674;2023-04-30T07:10:42;101695.91;;;12.02;100.00
47753;BME280;2038;51.728;6.674;2023-04-30T07:13:09;101703.28;;;12.32;100.00
47753;BME280;2038;51.728;6.674;2023-04-30T07:15:35;101709.06;;;12.30;100.00
47753;BME280;2038;51.728;6.674;2023-04-30T07:18:02;101705.41;;;12.26;100.00
47753;BME280;2038;51.728;6.674;2023-04-30T07:20:29;101704.31;;;12.57;100.00
47753;BME280;2038;51.728;6.674;2023-04-30T07:22:55;101707.97;;;12.61;100.00
47753;BME280;2038;51.728;6.674;2023-04-30T07:25:22;101705.06;;;12.68;100.00
47753;BME280;2038;51.728;6.674;2023-04-30T07:27:50;101705.84;;;12.79;100.00
47753;BME280;2038;51.728;6.674;2023-04-30T07:30:16;101702.63;;;12.81;100.00
47753;BME280;2038;51.728;6.674;2023-04-30T07:32:42;101709.06;;;12.99;100.00
47753;BME280;2038;51.728;6.674;2023-04-30T07:35:09;101701.94;;;12.95;100.00
47753;BME280;2038;51.728;6.674;2023-04-30T07:37:35;101706.22;;;13.08;100.00
47753;BME280;2038;51.728;6.674;2023-04-30T07:40:02;101706.25;;;13.20;100.00
47753;BME280;2038;51.728;6.674;2023-04-30T07:42:29;101705.00;;;13.26;99.73
47753;BME280;2038;51.728;6.674;2023-04-30T07:44:54;101709.09;;;13.36;99.38
47753;BME280;2038;51.728;6.674;2023-04-30T07:47:20;101703.63;;;13.43;100.00
47753;BME280;2038;51.728;6.674;2023-04-30T07:49:46;101700.06;;;13.41;98.07
47753;BME280;2038;51.728;6.674;2023-04-30T07:52:13;101699.28;;;13.42;97.49
47753;BME280;2038;51.728;6.674;2023-04-30T07:54:39;101698.28;;;13.65;99.82
47753;BME280;2038;51.728;6.674;2023-04-30T07:57:05;101695.97;;;13.81;97.54
47753;BME280;2038;51.728;6.674;2023-04-30T07:59:32;101703.44;;;13.78;94.92
47753;BME280;2038;51.728;6.674;2023-04-30T08:01:58;101705.91;;;13.76;97.33
47753;BME280;2038;51.728;6.674;2023-04-30T08:04:24;101701.41;;;13.85;98.11
47753;BME280;2038;51.728;6.674;2023-04-30T08:06:51;101711.97;;;13.90;97.75
47753;BME280;2038;51.728;6.674;2023-04-30T08:09:17;101710.81;;;13.98;96.82
47753;BME280;2038;51.728;6.674;2023-04-30T08:11:43;101713.91;;;14.19;94.91
47753;BME280;2038;51.728;6.674;2023-04-30T08:14:09;101714.59;;;14.29;93.90
47753;BME280;2038;51.728;6.674;2023-04-30T08:16:36;101714.66;;;14.42;93.27
47753;BME280;2038;51.728;6.674;2023-04-30T08:19:02;101722.25;;;14.41;92.11
47753;BME280;2038;51.728;6.674;2023-04-30T08:21:28;101717.47;;;14.34;92.68
47753;BME280;2038;51.728;6.674;2023-04-30T08:23:55;101718.91;;;14.42;94.10
47753;BME280;2038;51.728;6.674;2023-04-30T08:26:22;101714.72;;;14.31;92.02
47753;BME280;2038;51.728;6.674;2023-04-30T08:28:48;101719.06;;;14.32;91.21
47753;BME280;2038;51.728;6.674;2023-04-30T08:31:14;101714.25;;;14.36;92.86
47753;BME280;2038;51.728;6.674;2023-04-30T08:33:41;101713.78;;;14.42;91.61
47753;BME280;2038;51.728;6.674;2023-04-30T08:36:07;101713.38;;;14.49;91.75
47753;BME280;2038;51.728;6.674;2023-04-30T08:38:33;101711.22;;;14.42;90.35
47753;BME280;2038;51.728;6.674;2023-04-30T08:41:12;101716.66;;;14.60;91.71
47753;BME280;2038;51.728;6.674;2023-04-30T08:43:40;101716.53;;;14.58;89.78
47753;BME280;2038;51.728;6.674;2023-04-30T08:46:07;101710.81;;;14.62;90.62
47753;BME280;2038;51.728;6.674;2023-04-30T08:48:33;101711.22;;;14.68;90.20
47753;BME280;2038;51.728;6.674;2023-04-30T08:51:01;101710.53;;;14.84;90.41
47753;BME280;2038;51.728;6.674;2023-04-30T08:53:29;101719.13;;;14.84;87.28
47753;BME280;2038;51.728;6.674;2023-04-30T08:55:59;101717.16;;;14.80;88.43
47753;BME280;2038;51.728;6.674;2023-04-30T08:58:25;101722.84;;;14.89;87.65
47753;BME280;2038;51.728;6.674;2023-04-30T09:00:51;101719.06;;;14.97;89.02
47753;BME280;2038;51.728;6.674;2023-04-30T09:03:18;101714.22;;;15.15;87.69
47753;BME280;2038;51.728;6.674;2023-04-30T09:05:46;101713.97;;;15.25;86.53
47753;BME280;2038;51.728;6.674;2023-04-30T09:08:17;101720.00;;;15.26;84.97
47753;BME280;2038;51.728;6.674;2023-04-30T09:10:44;101718.47;;;15.15;83.01
47753;BME280;2038;51.728;6.674;2023-04-30T09:13:11;101710.53;;;15.25;83.74
47753;BME280;2038;51.728;6.674;2023-04-30T09:15:39;101705.88;;;15.32;84.21
47753;BME280;2038;51.728;6.674;2023-04-30T09:18:17;101712.56;;;15.43;82.91
47753;BME280;2038;51.728;6.674;2023-04-30T09:20:59;101705.81;;;15.45;83.04
47753;BME280;2038;51.728;6.674;2023-04-30T09:23:28;101699.00;;;15.46;85.63
47753;BME280;2038;51.728;6.674;2023-04-30T09:25:55;101703.66;;;15.52;87.65
47753;BME280;2038;51.728;6.674;2023-04-30T09:28:22;101706.53;;;15.56;84.68
47753;BME280;2038;51.728;6.674;2023-04-30T09:30:51;101705.16;;;15.76;85.51
47753;BME280;2038;51.728;6.674;2023-04-30T09:33:18;101698.78;;;15.84;88.36
47753;BME280;2038;51.728;6.674;2023-04-30T09:35:45;101697.59;;;15.79;82.99
47753;BME280;2038;51.728;6.674;2023-04-30T09:38:29;101694.16;;;15.78;85.14
47753;BME280;2038;51.728;6.674;2023-04-30T09:41:00;101691.84;;;15.83;85.03
47753;BME280;2038;51.728;6.674;2023-04-30T09:43:27;101689.44;;;15.86;86.67
47753;BME280;2038;51.728;6.674;2023-04-30T09:45:56;101688.66;;;15.87;85.16
47753;BME280;2038;51.728;6.674;2023-04-30T09:48:25;101688.94;;;15.91;86.68
47753;BME280;2038;51.728;6.674;2023-04-30T09:50:53;101689.91;;;15.93;86.54
47753;BME280;2038;51.728;6.674;2023-04-30T09:53:20;101692.75;;;15.98;83.89
47753;BME280;2038;51.728;6.674;2023-04-30T09:55:48;101692.19;;;15.89;84.35
47753;BME280;2038;51.728;6.674;2023-04-30T09:58:16;101685.81;;;15.82;85.03
47753;BME280;2038;51.728;6.674;2023-04-30T10:00:45;101683.34;;;15.84;85.67
47753;BME280;2038;51.728;6.674;2023-04-30T10:03:14;101687.59;;;15.83;85.31
47753;BME280;2038;51.728;6.674;2023-04-30T10:05:42;101677.75;;;15.91;86.89
47753;BME280;2038;51.728;6.674;2023-04-30T10:08:30;101677.03;;;15.93;83.40
47753;BME280;2038;51.728;6.674;2023-04-30T10:11:05;101667.66;;;15.79;83.44
47753;BME280;2038;51.728;6.674;2023-04-30T10:13:45;101673.69;;;15.80;85.04
47753;BME280;2038;51.728;6.674;2023-04-30T10:19:11;101669.94;;;15.89;86.46
47753;BME280;2038;51.728;6.674;2023-04-30T10:21:42;101667.59;;;15.93;84.81
47753;BME280;2038;51.728;6.674;2023-04-30T10:24:13;101660.56;;;15.90;84.40
47753;BME280;2038;51.728;6.674;2023-04-30T10:26:40;101664.28;;;15.80;84.46
47753;BME280;2038;51.728;6.674;2023-04-30T10:29:07;101660.22;;;15.84;83.81
47753;BME280;2038;51.728;6.674;2023-04-30T10:31:34;101665.34;;;15.99;84.22
47753;BME280;2038;51.728;6.674;2023-04-30T10:34:13;101663.66;;;16.14;86.67
47753;BME280;2038;51.728;6.674;2023-04-30T10:37:03;101655.59;;;16.22;85.11
47753;BME280;2038;51.728;6.674;2023-04-30T10:39:37;101654.97;;;16.26;83.81
47753;BME280;2038;51.728;6.674;2023-04-30T10:42:09;101654.22;;;16.29;82.73
47753;BME280;2038;51.728;6.674;2023-04-30T10:44:36;101649.63;;;16.38;84.94
47753;BME280;2038;51.728;6.674;2023-04-30T10:47:05;101640.16;;;16.53;86.50
47753;BME280;2038;51.728;6.674;2023-04-30T10:49:32;101644.03;;;16.60;85.33
47753;BME280;2038;51.728;6.674;2023-04-30T10:52:01;101644.34;;;16.66;83.41
47753;BME280;2038;51.728;6.674;2023-04-30T10:54:34;101642.50;;;16.63;83.06
47753;BME280;2038;51.728;6.674;2023-04-30T10:57:16;101642.59;;;16.65;82.92
47753;BME280;2038;51.728;6.674;2023-04-30T11:02:41;101629.00;;;16.67;83.93
47753;BME280;2038;51.728;6.674;2023-04-30T11:05:14;101630.44;;;16.62;84.73
47753;BME280;2038;51.728;6.674;2023-04-30T11:07:49;101619.84;;;16.72;84.50
47753;BME280;2038;51.728;6.674;2023-04-30T11:10:27;101621.44;;;16.70;81.24
47753;BME280;2038;51.728;6.674;2023-04-30T11:12:56;101616.69;;;16.78;83.10
47753;BME280;2038;51.728;6.674;2023-04-30T11:15:32;101609.38;;;16.69;82.55
47753;BME280;2038;51.728;6.674;2023-04-30T11:18:01;101615.03;;;16.95;84.08
47753;BME280;2038;51.728;6.674;2023-04-30T11:20:28;101605.53;;;17.10;83.29
47753;BME280;2038;51.728;6.674;2023-04-30T11:23:11;101601.38;;;17.12;81.51
47753;BME280;2038;51.728;6.674;2023-04-30T11:25:46;101609.22;;;16.82;80.81
47753;BME280;2038;51.728;6.674;2023-04-30T11:28:20;101606.81;;;17.02;81.74
47753;BME280;2038;51.728;6.674;2023-04-30T11:30:53;101608.94;;;17.09;82.31
47753;BME280;2038;51.728;6.674;2023-04-30T11:33:26;101604.97;;;16.99;82.01
47753;BME280;2038;51.728;6.674;2023-04-30T11:35:54;101600.09;;;17.04;82.14
47753;BME280;2038;51.728;6.674;2023-04-30T11:38:34;101599.09;;;17.18;83.40
47753;BME280;2038;51.728;6.674;2023-04-30T11:41:02;101593.78;;;17.15;81.30
47753;BME280;2038;51.728;6.674;2023-04-30T11:43:31;101588.41;;;17.10;80.64
47753;BME280;2038;51.728;6.674;2023-04-30T11:46:12;101591.38;;;17.18;84.14
47753;BME280;2038;51.728;6.674;2023-04-30T11:48:44;101585.13;;;17.13;80.81
47753;BME280;2038;51.728;6.674;2023-04-30T11:53:44;101578.22;;;17.29;81.77
47753;BME280;2038;51.728;6.674;2023-04-30T11:56:11;101581.94;;;17.35;80.68
47753;BME280;2038;51.728;6.674;2023-04-30T11:58:38;101582.03;;;17.36;81.34
47753;BME280;2038;51.728;6.674;2023-04-30T12:01:06;101575.47;;;17.43;81.60
47753;BME280;2038;51.728;6.674;2023-04-30T12:03:40;101571.47;;;17.48;80.26
47753;BME280;2038;51.728;6.674;2023-04-30T12:06:10;101574.19;;;17.51;80.57
47753;BME280;2038;51.728;6.674;2023-04-30T12:08:37;101569.34;;;17.57;79.33
47753;BME280;2038;51.728;6.674;2023-04-30T12:11:22;101569.69;;;17.30;77.37
47753;BME280;2038;51.728;6.674;2023-04-30T12:14:00;101570.03;;;17.37;78.91
47753;BME280;2038;51.728;6.674;2023-04-30T12:16:41;101565.97;;;17.42;79.25
47753;BME280;2038;51.728;6.674;2023-04-30T12:19:17;101570.72;;;17.50;77.91
47753;BME280;2038;51.728;6.674;2023-04-30T12:21:48;101565.41;;;17.47;79.34
47753;BME280;2038;51.728;6.674;2023-04-30T12:24:16;101566.16;;;17.45;77.95
47753;BME280;2038;51.728;6.674;2023-04-30T12:26:44;101555.41;;;17.53;80.90
47753;BME280;2038;51.728;6.674;2023-04-30T12:29:15;101559.59;;;17.51;77.54
47753;BME280;2038;51.728;6.674;2023-04-30T12:31:43;101562.28;;;17.53;76.16
47753;BME280;2038;51.728;6.674;2023-04-30T12:34:13;101562.28;;;17.53;76.75
47753;BME280;2038;51.728;6.674;2023-04-30T12:36:41;101553.56;;;17.67;78.36
47753;BME280;2038;51.728;6.674;2023-04-30T12:39:10;101550.81;;;17.64;76.92
47753;BME280;2038;51.728;6.674;2023-04-30T12:41:43;101555.75;;;17.59;75.28
47753;BME280;2038;51.728;6.674;2023-04-30T12:46:46;101552.75;;;17.68;75.21
47753;BME280;2038;51.728;6.674;2023-04-30T12:49:25;101547.81;;;17.72;75.50
47753;BME280;2038;51.728;6.674;2023-04-30T12:54:33;101548.75;;;17.74;77.21
47753;BME280;2038;51.728;6.674;2023-04-30T12:57:03;101542.25;;;17.81;75.57
47753;BME280;2038;51.728;6.674;2023-04-30T13:02:26;101539.56;;;17.80;75.46
47753;BME280;2038;51.728;6.674;2023-04-30T13:04:54;101540.25;;;17.93;76.17
47753;BME280;2038;51.728;6.674;2023-04-30T13:07:20;101536.38;;;17.67;73.35
47753;BME280;2038;51.728;6.674;2023-04-30T13:09:46;101538.09;;;17.85;73.96
47753;BME280;2038;51.728;6.674;2023-04-30T13:12:12;101528.44;;;17.98;73.58
47753;BME280;2038;51.728;6.674;2023-04-30T13:14:39;101527.41;;;18.12;73.67
47753;BME280;2038;51.728;6.674;2023-04-30T13:17:06;101527.09;;;18.06;70.63
47753;BME280;2038;51.728;6.674;2023-04-30T13:19:34;101519.56;;;18.29;72.00
47753;BME280;2038;51.728;6.674;2023-04-30T13:22:00;101520.94;;;18.40;71.93
47753;BME280;2038;51.728;6.674;2023-04-30T13:24:27;101510.97;;;18.47;71.60
47753;BME280;2038;51.728;6.674;2023-04-30T13:26:53;101513.13;;;18.38;71.81
47753;BME280;2038;51.728;6.674;2023-04-30T13:29:19;101509.41;;;18.51;74.49
47753;BME280;2038;51.728;6.674;2023-04-30T13:31:46;101515.88;;;18.41;69.74
47753;BME280;2038;51.728;6.674;2023-04-30T13:34:14;101504.72;;;18.42;70.93
47753;BME280;2038;51.728;6.674;2023-04-30T13:36:41;101504.69;;;18.23;70.40